sensor_id;sensor_type;location;lat;lon;timestamp;pressure;altitude;pressure_sealevel;temperature;humidity
7105;BME280;3594;42.152;24.714;2022-10-30T00:00:56;-24031.38;;;7.68;nan
7105;BME280;3594;42.152;24.714;2022-10-30T00:03:22;-24017.91;;;7.20;nan
7105;BME280;3594;42.152;24.714;2022-10-30T00:05:49;-24026.56;;;7.50;nan
7105;BME280;3594;42.152;24.714;2022-10-30T00:08:18;-24030.38;;;7.64;nan
7105;BME280;3594;42.152;24.714;2022-10-30T00:10:43;-24016.50;;;7.15;nan
7105;BME280;3594;42.152;24.714;2022-10-30T00:13:10;-24019.47;;;7.25;nan
7105;BME280;3594;42.152;24.714;2022-10-30T00:15:36;-24020.19;;;7.28;nan
7105;BME280;3594;42.152;24.714;2022-10-30T00:18:02;-24027.84;;;7.55;nan
7105;BME280;3594;42.152;24.714;2022-10-30T00:20:28;-24023.31;;;7.39;nan
7105;BME280;3594;42.152;24.714;2022-10-30T00:22:53;-24025.28;;;7.46;nan
7105;BME280;3594;42.152;24.714;2022-10-30T00:25:19;-24014.09;;;7.06;nan
7105;BME280;3594;42.152;24.714;2022-10-30T00:27:44;-24022.03;;;7.34;nan
7105;BME280;3594;42.152;24.714;2022-10-30T00:30:10;-24012.25;;;6.99;nan
7105;BME280;3594;42.152;24.714;2022-10-30T00:32:35;-24012.53;;;7.00;nan
7105;BME280;3594;42.152;24.714;2022-10-30T00:35:01;-24022.72;;;7.37;nan
7105;BME280;3594;42.152;24.714;2022-10-30T00:37:26;-24021.88;;;7.34;nan
7105;BME280;3594;42.152;24.714;2022-10-30T00:39:52;-24011.66;;;6.97;nan
7105;BME280;3594;42.152;24.714;2022-10-30T00:42:17;-24014.38;;;7.07;nan
7105;BME280;3594;42.152;24.714;2022-10-30T00:50:08;-24023.00;;;7.38;nan
7105;BME280;3594;42.152;24.714;2022-10-30T00:52:41;-24019.75;;;7.26;nan
7105;BME280;3594;42.152;24.714;2022-10-30T00:55:12;-24009.13;;;6.88;nan
7105;BME280;3594;42.152;24.714;2022-10-30T00:57:38;-24009.13;;;6.88;nan
7105;BME280;3594;42.152;24.714;2022-10-30T01:00:05;-24007.84;;;6.84;nan
7105;BME280;3594;42.152;24.714;2022-10-30T01:02:31;-24016.50;;;7.15;nan
7105;BME280;3594;42.152;24.714;2022-10-30T01:04:57;-24009.53;;;6.90;nan
7105;BME280;3594;42.152;24.714;2022-10-30T01:07:23;-24014.66;;;7.08;nan
7105;BME280;3594;42.152;24.714;2022-10-30T01:09:49;-24017.91;;;7.20;nan
7105;BME280;3594;42.152;24.714;2022-10-30T01:12:15;-24007.13;;;6.81;nan
7105;BME280;3594;42.152;24.714;2022-10-30T01:14:44;-24017.91;;;7.20;nan
7105;BME280;3594;42.152;24.714;2022-10-30T01:20:12;-24016.06;;;7.13;nan
7105;BME280;3594;42.152;24.714;2022-10-30T01:28:47;-24014.78;;;7.08;nan
7105;BME280;3594;42.152;24.714;2022-10-30T01:36:48;-24012.66;;;7.01;nan
7105;BME280;3594;42.152;24.714;2022-10-30T01:39:25;-24015.66;;;7.12;nan
7105;BME280;3594;42.152;24.714;2022-10-30T01:41:52;-24009.25;;;6.89;nan
7105;BME280;3594;42.152;24.714;2022-10-30T01:44:23;-24010.97;;;6.95;nan
7105;BME280;3594;42.152;24.714;2022-10-30T01:47:12;-24014.50;;;7.07;nan
7105;BME280;3594;42.152;24.714;2022-10-30T01:52:45;-24008.41;;;6.86;nan
7105;BME280;3594;42.152;24.714;2022-10-30T01:55:36;-24010.41;;;6.93;nan
7105;BME280;3594;42.152;24.714;2022-10-30T01:58:30;-24008.41;;;6.86;nan
7105;BME280;3594;42.152;24.714;2022-10-30T02:00:59;-24001.59;;;6.61;nan
7105;BME280;3594;42.152;24.714;2022-10-30T02:03:25;-23999.91;;;6.55;nan
7105;BME280;3594;42.152;24.714;2022-10-30T02:05:52;-23993.50;;;6.33;nan
7105;BME280;3594;42.152;24.714;2022-10-30T02:08:18;-23991.09;;;6.24;nan
7105;BME280;3594;42.152;24.714;2022-10-30T02:10:46;-24003.16;;;6.67;nan
7105;BME280;3594;42.152;24.714;2022-10-30T02:13:12;-24003.16;;;6.67;nan
7105;BME280;3594;42.152;24.714;2022-10-30T02:15:38;-23998.75;;;6.51;nan
7105;BME280;3594;42.152;24.714;2022-10-30T02:18:04;-23995.78;;;6.41;nan
7105;BME280;3594;42.152;24.714;2022-10-30T02:20:30;-23996.34;;;6.43;nan
7105;BME280;3594;42.152;24.714;2022-10-30T02:22:56;-23998.34;;;6.50;nan
7105;BME280;3594;42.152;24.714;2022-10-30T02:25:21;-23993.78;;;6.34;nan
7105;BME280;3594;42.152;24.714;2022-10-30T02:27:47;-23987.13;;;6.10;nan
7105;BME280;3594;42.152;24.714;2022-10-30T02:30:12;-23992.38;;;6.29;nan
7105;BME280;3594;42.152;24.714;2022-10-30T02:32:38;-23985.41;;;6.04;nan
7105;BME280;3594;42.152;24.714;2022-10-30T02:35:04;-23986.41;;;6.07;nan
7105;BME280;3594;42.152;24.714;2022-10-30T02:37:29;-23995.63;;;6.40;nan
7105;BME280;3594;42.152;24.714;2022-10-30T02:39:57;-23995.34;;;6.39;nan
7105;BME280;3594;42.152;24.714;2022-10-30T02:42:22;-23993.38;;;6.32;nan
7105;BME280;3594;42.152;24.714;2022-10-30T02:44:48;-23996.22;;;6.42;nan
7105;BME280;3594;42.152;24.714;2022-10-30T02:47:13;-23994.78;;;6.37;nan
7105;BME280;3594;42.152;24.714;2022-10-30T02:49:39;-23989.53;;;6.18;nan
7105;BME280;3594;42.152;24.714;2022-10-30T02:52:06;-24001.03;;;6.59;nan
7105;BME280;3594;42.152;24.714;2022-10-30T02:54:32;-23996.91;;;6.45;nan
7105;BME280;3594;42.152;24.714;2022-10-30T02:56:57;-23996.34;;;6.43;nan
7105;BME280;3594;42.152;24.714;2022-10-30T02:59:23;-23984.97;;;6.02;nan
7105;BME280;3594;42.152;24.714;2022-10-30T03:01:48;-23992.78;;;6.30;nan
7105;BME280;3594;42.152;24.714;2022-10-30T03:04:14;-23989.81;;;6.19;nan
7105;BME280;3594;42.152;24.714;2022-10-30T03:06:39;-23987.97;;;6.13;nan
7105;BME280;3594;42.152;24.714;2022-10-30T03:09:04;-23991.53;;;6.26;nan
7105;BME280;3594;42.152;24.714;2022-10-30T03:11:33;-23988.41;;;6.14;nan
7105;BME280;3594;42.152;24.714;2022-10-30T03:13:58;-23980.00;;;5.85;nan
7105;BME280;3594;42.152;24.714;2022-10-30T03:16:25;-23927.94;;;3.99;nan
7105;BME280;3594;42.152;24.714;2022-10-30T03:18:54;-23990.81;;;6.23;nan
7105;BME280;3594;42.152;24.714;2022-10-30T03:21:21;-23981.00;;;5.88;nan
7105;BME280;3594;42.152;24.714;2022-10-30T03:23:47;-23983.84;;;5.98;nan
7105;BME280;3594;42.152;24.714;2022-10-30T03:26:15;-23982.72;;;5.94;nan
7105;BME280;3594;42.152;24.714;2022-10-30T03:28:40;-23982.44;;;5.93;nan
7105;BME280;3594;42.152;24.714;2022-10-30T03:31:08;-23983.84;;;5.98;nan
7105;BME280;3594;42.152;24.714;2022-10-30T03:33:35;-23980.72;;;5.87;nan
7105;BME280;3594;42.152;24.714;2022-10-30T03:36:01;-23975.47;;;5.68;nan
7105;BME280;3594;42.152;24.714;2022-10-30T03:38:27;-23962.53;;;5.22;nan
7105;BME280;3594;42.152;24.714;2022-10-30T03:40:52;-23972.47;;;5.58;nan
7105;BME280;3594;42.152;24.714;2022-10-30T03:43:18;-23978.16;;;5.78;nan
7105;BME280;3594;42.152;24.714;2022-10-30T03:45:48;-23964.09;;;5.28;nan
7105;BME280;3594;42.152;24.714;2022-10-30T03:48:14;-23961.25;;;5.18;nan
7105;BME280;3594;42.152;24.714;2022-10-30T03:50:40;-23963.94;;;5.27;nan
7105;BME280;3594;42.152;24.714;2022-10-30T03:53:05;-23970.22;;;5.50;nan
7105;BME280;3594;42.152;24.714;2022-10-30T03:55:31;-23979.72;;;5.84;nan
7105;BME280;3594;42.152;24.714;2022-10-30T03:57:56;-23962.53;;;5.22;nan
7105;BME280;3594;42.152;24.714;2022-10-30T04:00:21;-23972.63;;;5.58;nan
7105;BME280;3594;42.152;24.714;2022-10-30T04:02:48;-23972.19;;;5.57;nan
7105;BME280;3594;42.152;24.714;2022-10-30T04:05:15;-23970.06;;;5.49;nan
7105;BME280;3594;42.152;24.714;2022-10-30T04:07:41;-23966.78;;;5.38;nan
7105;BME280;3594;42.152;24.714;2022-10-30T04:10:07;-23974.75;;;5.66;nan
7105;BME280;3594;42.152;24.714;2022-10-30T04:12:32;-23966.38;;;5.36;nan
7105;BME280;3594;42.152;24.714;2022-10-30T04:14:58;-23964.09;;;5.28;nan
7105;BME280;3594;42.152;24.714;2022-10-30T04:17:23;-23964.66;;;5.30;nan
7105;BME280;3594;42.152;24.714;2022-10-30T04:19:49;-23972.75;;;5.59;nan
7105;BME280;3594;42.152;24.714;2022-10-30T04:22:14;-23976.31;;;5.71;nan
7105;BME280;3594;42.152;24.714;2022-10-30T04:24:39;-23968.06;;;5.42;nan
7105;BME280;3594;42.152;24.714;2022-10-30T04:27:05;-23955.28;;;4.97;nan
7105;BME280;3594;42.152;24.714;2022-10-30T04:29:30;-23965.38;;;5.32;nan
7105;BME280;3594;42.152;24.714;2022-10-30T04:31:56;-23962.81;;;5.23;nan
7105;BME280;3594;42.152;24.714;2022-10-30T04:34:21;-23971.91;;;5.56;nan
7105;BME280;3594;42.152;24.714;2022-10-30T04:36:47;-23965.66;;;5.33;nan
7105;BME280;3594;42.152;24.714;2022-10-30T04:39:13;-23964.94;;;5.31;nan
7105;BME280;3594;42.152;24.714;2022-10-30T04:41:38;-23972.47;;;5.58;nan
7105;BME280;3594;42.152;24.714;2022-10-30T04:44:03;-23975.59;;;5.69;nan
7105;BME280;3594;42.152;24.714;2022-10-30T04:46:30;-23975.31;;;5.68;nan
7105;BME280;3594;42.152;24.714;2022-10-30T04:48:56;-23969.06;;;5.46;nan
7105;BME280;3594;42.152;24.714;2022-10-30T04:51:22;-23970.78;;;5.52;nan
7105;BME280;3594;42.152;24.714;2022-10-30T04:53:48;-23970.06;;;5.49;nan
7105;BME280;3594;42.152;24.714;2022-10-30T04:56:13;-23971.91;;;5.56;nan
7105;BME280;3594;42.152;24.714;2022-10-30T04:58:39;-23969.78;;;5.48;nan
7105;BME280;3594;42.152;24.714;2022-10-30T05:01:06;-23973.47;;;5.61;nan
7105;BME280;3594;42.152;24.714;2022-10-30T05:03:31;-23966.22;;;5.36;nan
7105;BME280;3594;42.152;24.714;2022-10-30T05:06:03;-23969.50;;;5.47;nan
7105;BME280;3594;42.152;24.714;2022-10-30T05:08:30;-23979.59;;;5.83;nan
7105;BME280;3594;42.152;24.714;2022-10-30T05:10:55;-23974.75;;;5.66;nan
7105;BME280;3594;42.152;24.714;2022-10-30T05:13:21;-23969.34;;;5.47;nan
7105;BME280;3594;42.152;24.714;2022-10-30T05:15:46;-23977.44;;;5.75;nan
7105;BME280;3594;42.152;24.714;2022-10-30T05:18:12;-23981.56;;;5.90;nan
7105;BME280;3594;42.152;24.714;2022-10-30T05:20:37;-23987.13;;;6.10;nan
7105;BME280;3594;42.152;24.714;2022-10-30T05:23:03;-23982.72;;;5.94;nan
7105;BME280;3594;42.152;24.714;2022-10-30T05:25:29;-23989.97;;;6.20;nan
7105;BME280;3594;42.152;24.714;2022-10-30T05:28:02;-23962.94;;;5.24;nan
7105;BME280;3594;42.152;24.714;2022-10-30T05:30:29;-23994.22;;;6.35;nan
7105;BME280;3594;42.152;24.714;2022-10-30T05:33:06;-23996.91;;;6.45;nan
7105;BME280;3594;42.152;24.714;2022-10-30T05:35:33;-23999.63;;;6.54;nan
7105;BME280;3594;42.152;24.714;2022-10-30T05:38:00;-24000.88;;;6.59;nan
7105;BME280;3594;42.152;24.714;2022-10-30T05:40:26;-23997.75;;;6.48;nan
7105;BME280;3594;42.152;24.714;2022-10-30T05:42:51;-24004.16;;;6.71;nan
7105;BME280;3594;42.152;24.714;2022-10-30T05:45:17;-24001.19;;;6.60;nan
7105;BME280;3594;42.152;24.714;2022-10-30T05:47:43;-23997.19;;;6.46;nan
7105;BME280;3594;42.152;24.714;2022-10-30T05:50:17;-24010.53;;;6.93;nan
7105;BME280;3594;42.152;24.714;2022-10-30T05:52:43;-24015.06;;;7.09;nan
7105;BME280;3594;42.152;24.714;2022-10-30T05:55:08;-24011.81;;;6.98;nan
7105;BME280;3594;42.152;24.714;2022-10-30T05:57:34;-24005.72;;;6.76;nan
7105;BME280;3594;42.152;24.714;2022-10-30T05:59:59;-24007.41;;;6.82;nan
7105;BME280;3594;42.152;24.714;2022-10-30T06:02:24;-24006.00;;;6.77;nan
7105;BME280;3594;42.152;24.714;2022-10-30T06:04:50;-24026.97;;;7.52;nan
7105;BME280;3594;42.152;24.714;2022-10-30T06:07:15;-24031.38;;;7.68;nan
7105;BME280;3594;42.152;24.714;2022-10-30T06:09:41;-24037.75;;;7.90;nan
7105;BME280;3594;42.152;24.714;2022-10-30T06:12:06;-24037.31;;;7.89;nan
7105;BME280;3594;42.152;24.714;2022-10-30T06:14:31;-24032.78;;;7.73;nan
7105;BME280;3594;42.152;24.714;2022-10-30T06:16:57;-24051.06;;;8.38;nan
7105;BME280;3594;42.152;24.714;2022-10-30T06:19:22;-24055.75;;;8.55;nan
7105;BME280;3594;42.152;24.714;2022-10-30T06:21:48;-24046.69;;;8.22;nan
7105;BME280;3594;42.152;24.714;2022-10-30T06:24:13;-24062.09;;;8.77;nan
7105;BME280;3594;42.152;24.714;2022-10-30T06:26:39;-24055.88;;;8.55;nan
7105;BME280;3594;42.152;24.714;2022-10-30T06:29:05;-24068.75;;;9.01;nan
7105;BME280;3594;42.152;24.714;2022-10-30T06:31:30;-24076.94;;;9.30;nan
7105;BME280;3594;42.152;24.714;2022-10-30T06:33:56;-24072.44;;;9.14;nan
7105;BME280;3594;42.152;24.714;2022-10-30T06:36:21;-24078.94;;;9.38;nan
7105;BME280;3594;42.152;24.714;2022-10-30T06:38:47;-24080.78;;;9.44;nan
7105;BME280;3594;42.152;24.714;2022-10-30T06:41:12;-24094.91;;;9.95;nan
7105;BME280;3594;42.152;24.714;2022-10-30T06:43:37;-24095.03;;;9.95;nan
7105;BME280;3594;42.152;24.714;2022-10-30T06:46:03;-24103.94;;;10.27;nan
7105;BME280;3594;42.152;24.714;2022-10-30T06:48:28;-24110.44;;;10.50;nan
7105;BME280;3594;42.152;24.714;2022-10-30T06:50:55;-24113.69;;;10.62;nan
7105;BME280;3594;42.152;24.714;2022-10-30T06:53:21;-24108.16;;;10.42;nan
7105;BME280;3594;42.152;24.714;2022-10-30T06:55:57;-24113.41;;;10.61;nan
7105;BME280;3594;42.152;24.714;2022-10-30T06:58:23;-24025.00;;;7.45;nan
7105;BME280;3594;42.152;24.714;2022-10-30T07:00:49;-24135.09;;;11.39;nan
7105;BME280;3594;42.152;24.714;2022-10-30T07:03:15;-24141.59;;;11.62;nan
7105;BME280;3594;42.152;24.714;2022-10-30T07:05:40;-24142.84;;;11.67;nan
7105;BME280;3594;42.152;24.714;2022-10-30T07:08:06;-24144.56;;;11.73;nan
7105;BME280;3594;42.152;24.714;2022-10-30T07:10:31;-24154.13;;;12.07;nan
7105;BME280;3594;42.152;24.714;2022-10-30T07:12:57;-24161.72;;;12.34;nan
7105;BME280;3594;42.152;24.714;2022-10-30T07:15:23;-24158.91;;;12.24;nan
7105;BME280;3594;42.152;24.714;2022-10-30T07:20:21;-24107.19;;;10.39;nan
7105;BME280;3594;42.152;24.714;2022-10-30T07:22:47;-24161.44;;;12.33;nan
7105;BME280;3594;42.152;24.714;2022-10-30T07:25:12;-24166.09;;;12.50;nan
7105;BME280;3594;42.152;24.714;2022-10-30T07:27:45;-24168.06;;;12.57;nan
7105;BME280;3594;42.152;24.714;2022-10-30T07:30:12;-24172.69;;;12.74;nan
7105;BME280;3594;42.152;24.714;2022-10-30T07:32:38;-24183.25;;;13.12;nan
7105;BME280;3594;42.152;24.714;2022-10-30T07:35:05;-24196.03;;;13.58;nan
7105;BME280;3594;42.152;24.714;2022-10-30T07:37:30;-24202.63;;;13.82;nan
7105;BME280;3594;42.152;24.714;2022-10-30T07:39:56;-24199.69;;;13.71;nan
7105;BME280;3594;42.152;24.714;2022-10-30T07:42:21;-24207.25;;;13.98;nan
7105;BME280;3594;42.152;24.714;2022-10-30T07:44:47;-24200.53;;;13.74;nan
7105;BME280;3594;42.152;24.714;2022-10-30T07:47:12;-24206.56;;;13.96;nan
7105;BME280;3594;42.152;24.714;2022-10-30T07:49:37;-24220.88;;;14.47;nan
7105;BME280;3594;42.152;24.714;2022-10-30T07:52:03;-24223.81;;;14.58;nan
7105;BME280;3594;42.152;24.714;2022-10-30T07:54:28;-24221.16;;;14.48;nan
7105;BME280;3594;42.152;24.714;2022-10-30T07:56:54;-24227.88;;;14.73;nan
7105;BME280;3594;42.152;24.714;2022-10-30T07:59:19;-24237.69;;;15.08;nan
7105;BME280;3594;42.152;24.714;2022-10-30T08:01:45;-24243.00;;;15.27;nan
7105;BME280;3594;42.152;24.714;2022-10-30T08:04:10;-24245.81;;;15.37;nan
7105;BME280;3594;42.152;24.714;2022-10-30T08:06:38;-24244.00;;;15.31;nan
7105;BME280;3594;42.152;24.714;2022-10-30T08:09:04;-24256.47;;;15.76;nan
7105;BME280;3594;42.152;24.714;2022-10-30T08:11:29;-24261.78;;;15.95;nan
7105;BME280;3594;42.152;24.714;2022-10-30T08:13:54;-24260.78;;;15.91;nan
7105;BME280;3594;42.152;24.714;2022-10-30T08:16:20;-24260.38;;;15.90;nan
7105;BME280;3594;42.152;24.714;2022-10-30T08:18:45;-24272.41;;;16.33;nan
7105;BME280;3594;42.152;24.714;2022-10-30T08:21:11;-24276.44;;;16.48;nan
7105;BME280;3594;42.152;24.714;2022-10-30T08:23:36;-24288.06;;;16.90;nan
7105;BME280;3594;42.152;24.714;2022-10-30T08:26:02;-24287.06;;;16.87;nan
7105;BME280;3594;42.152;24.714;2022-10-30T08:28:27;-24285.81;;;16.82;nan
7105;BME280;3594;42.152;24.714;2022-10-30T08:30:53;-24307.88;;;17.62;nan
7105;BME280;3594;42.152;24.714;2022-10-30T08:33:18;-24305.09;;;17.52;nan
7105;BME280;3594;42.152;24.714;2022-10-30T08:35:51;-24310.66;;;17.72;nan
7105;BME280;3594;42.152;24.714;2022-10-30T08:38:18;-24316.94;;;17.95;nan
7105;BME280;3594;42.152;24.714;2022-10-30T08:40:44;-24315.41;;;17.89;nan
7105;BME280;3594;42.152;24.714;2022-10-30T08:43:09;-24322.09;;;18.14;nan
7105;BME280;3594;42.152;24.714;2022-10-30T08:45:35;-24316.38;;;17.93;nan
7105;BME280;3594;42.152;24.714;2022-10-30T08:48:02;-24328.38;;;18.36;nan
7105;BME280;3594;42.152;24.714;2022-10-30T08:50:29;-24329.63;;;18.41;nan
7105;BME280;3594;42.152;24.714;2022-10-30T08:52:55;-24320.84;;;18.09;nan
7105;BME280;3594;42.152;24.714;2022-10-30T08:55:24;-24332.00;;;18.49;nan
7105;BME280;3594;42.152;24.714;2022-10-30T08:57:49;-24330.59;;;18.44;nan
7105;BME280;3594;42.152;24.714;2022-10-30T09:00:14;-24331.16;;;18.46;nan
7105;BME280;3594;42.152;24.714;2022-10-30T09:02:40;-24340.91;;;18.82;nan
7105;BME280;3594;42.152;24.714;2022-10-30T09:05:06;-24338.25;;;18.72;nan
7105;BME280;3594;42.152;24.714;2022-10-30T09:07:33;-24341.75;;;18.85;nan
7105;BME280;3594;42.152;24.714;2022-10-30T09:09:59;-24342.72;;;18.88;nan
7105;BME280;3594;42.152;24.714;2022-10-30T09:12:24;-24345.91;;;19.00;nan
7105;BME280;3594;42.152;24.714;2022-10-30T09:14:49;-24364.16;;;19.66;nan
7105;BME280;3594;42.152;24.714;2022-10-30T09:17:15;-24358.31;;;19.45;nan
7105;BME280;3594;42.152;24.714;2022-10-30T09:19:40;-24357.47;;;19.42;nan
7105;BME280;3594;42.152;24.714;2022-10-30T09:22:06;-24366.38;;;19.74;nan
7105;BME280;3594;42.152;24.714;2022-10-30T09:24:31;-24367.63;;;19.79;nan
7105;BME280;3594;42.152;24.714;2022-10-30T09:26:57;-24385.53;;;20.44;nan
7105;BME280;3594;42.152;24.714;2022-10-30T09:29:23;-24383.31;;;20.36;nan
7105;BME280;3594;42.152;24.714;2022-10-30T09:31:48;-24382.91;;;20.35;nan
7105;BME280;3594;42.152;24.714;2022-10-30T09:34:14;-24386.94;;;20.49;nan
7105;BME280;3594;42.152;24.714;2022-10-30T09:36:39;-24388.75;;;20.56;nan
7105;BME280;3594;42.152;24.714;2022-10-30T09:39:08;-24371.66;;;19.94;nan
7105;BME280;3594;42.152;24.714;2022-10-30T09:41:38;-24404.69;;;21.14;nan
7105;BME280;3594;42.152;24.714;2022-10-30T09:44:40;-24402.75;;;21.07;nan
7105;BME280;3594;42.152;24.714;2022-10-30T09:47:48;-24405.81;;;21.18;nan
7105;BME280;3594;42.152;24.714;2022-10-30T09:56:27;-24416.47;;;21.57;nan
7105;BME280;3594;42.152;24.714;2022-10-30T10:01:43;-24418.56;;;21.65;nan
7105;BME280;3594;42.152;24.714;2022-10-30T10:04:36;-24419.78;;;21.69;nan
7105;BME280;3594;42.152;24.714;2022-10-30T10:09:54;-24420.63;;;21.72;nan
7105;BME280;3594;42.152;24.714;2022-10-30T10:14:54;-24435.59;;;22.27;nan
7105;BME280;3594;42.152;24.714;2022-10-30T10:17:28;-24373.72;;;20.01;nan
7105;BME280;3594;42.152;24.714;2022-10-30T10:19:57;-24435.72;;;22.27;nan
7105;BME280;3594;42.152;24.714;2022-10-30T10:22:38;-24434.75;;;22.24;nan
7105;BME280;3594;42.152;24.714;2022-10-30T10:25:08;-24428.25;;;22.00;nan
7105;BME280;3594;42.152;24.714;2022-10-30T10:28:02;-24441.94;;;22.50;nan
7105;BME280;3594;42.152;24.714;2022-10-30T10:30:55;-24447.19;;;22.69;nan
7105;BME280;3594;42.152;24.714;2022-10-30T10:33:42;-24448.72;;;22.75;nan
7105;BME280;3594;42.152;24.714;2022-10-30T10:36:34;-24449.41;;;22.77;nan
7105;BME280;3594;42.152;24.714;2022-10-30T10:44:48;-24453.16;;;22.91;nan
7105;BME280;3594;42.152;24.714;2022-10-30T10:52:42;-24458.00;;;23.09;nan
7105;BME280;3594;42.152;24.714;2022-10-30T10:55:20;-24466.00;;;23.38;nan
7105;BME280;3594;42.152;24.714;2022-10-30T10:57:46;-24438.34;;;22.37;nan
7105;BME280;3594;42.152;24.714;2022-10-30T11:00:18;-24466.56;;;23.40;nan
7105;BME280;3594;42.152;24.714;2022-10-30T11:03:19;-24474.44;;;23.69;nan
7105;BME280;3594;42.152;24.714;2022-10-30T11:05:55;-24475.38;;;23.72;nan
7105;BME280;3594;42.152;24.714;2022-10-30T11:08:28;-24480.63;;;23.92;nan
7105;BME280;3594;42.152;24.714;2022-10-30T11:11:01;-24480.91;;;23.93;nan
7105;BME280;3594;42.152;24.714;2022-10-30T11:13:34;-24483.94;;;24.04;nan
7105;BME280;3594;42.152;24.714;2022-10-30T11:18:45;-24486.00;;;24.11;nan
7105;BME280;3594;42.152;24.714;2022-10-30T11:21:18;-24487.25;;;24.16;nan
7105;BME280;3594;42.152;24.714;2022-10-30T11:23:47;-24486.28;;;24.12;nan
7105;BME280;3594;42.152;24.714;2022-10-30T11:33:41;-24484.78;;;24.07;nan
7105;BME280;3594;42.152;24.714;2022-10-30T11:36:08;-24493.88;;;24.40;nan
7105;BME280;3594;42.152;24.714;2022-10-30T11:38:33;-24489.59;;;24.25;nan
7105;BME280;3594;42.152;24.714;2022-10-30T11:41:00;-24498.41;;;24.57;nan
7105;BME280;3594;42.152;24.714;2022-10-30T11:43:26;-24483.53;;;24.02;nan
7105;BME280;3594;42.152;24.714;2022-10-30T11:45:53;-24503.53;;;24.76;nan
7105;BME280;3594;42.152;24.714;2022-10-30T11:48:26;-24493.59;;;24.39;nan
7105;BME280;3594;42.152;24.714;2022-10-30T11:50:58;-24499.94;;;24.62;nan
7105;BME280;3594;42.152;24.714;2022-10-30T11:53:34;-24509.19;;;24.96;nan
7105;BME280;3594;42.152;24.714;2022-10-30T11:56:09;-24500.34;;;24.64;nan
7105;BME280;3594;42.152;24.714;2022-10-30T11:58:42;-24487.81;;;24.18;nan
7105;BME280;3594;42.152;24.714;2022-10-30T12:01:28;-24507.53;;;24.90;nan
7105;BME280;3594;42.152;24.714;2022-10-30T12:03:55;-24505.44;;;24.83;nan
7105;BME280;3594;42.152;24.714;2022-10-30T12:06:27;-24506.69;;;24.87;nan
7105;BME280;3594;42.152;24.714;2022-10-30T12:09:08;-24509.03;;;24.96;nan
7105;BME280;3594;42.152;24.714;2022-10-30T12:11:36;-24506.56;;;24.87;nan
7105;BME280;3594;42.152;24.714;2022-10-30T12:14:04;-24504.34;;;24.79;nan
7105;BME280;3594;42.152;24.714;2022-10-30T12:16:29;-24501.31;;;24.68;nan
7105;BME280;3594;42.152;24.714;2022-10-30T12:18:59;-24511.91;;;25.06;nan
7105;BME280;3594;42.152;24.714;2022-10-30T12:21:26;-24504.47;;;24.79;nan
7105;BME280;3594;42.152;24.714;2022-10-30T12:24:00;-24511.78;;;25.06;nan
7105;BME280;3594;42.152;24.714;2022-10-30T12:26:32;-24493.03;;;24.37;nan
7105;BME280;3594;42.152;24.714;2022-10-30T12:29:06;-24485.19;;;24.08;nan
7105;BME280;3594;42.152;24.714;2022-10-30T12:31:47;-24506.00;;;24.85;nan
7105;BME280;3594;42.152;24.714;2022-10-30T12:39:52;-24510.81;;;25.02;nan
7105;BME280;3594;42.152;24.714;2022-10-30T12:42:19;-24511.66;;;25.05;nan
7105;BME280;3594;42.152;24.714;2022-10-30T12:52:36;-24506.81;;;24.88;nan
7105;BME280;3594;42.152;24.714;2022-10-30T12:55:20;-24512.63;;;25.09;nan
7105;BME280;3594;42.152;24.714;2022-10-30T13:00:38;-24506.13;;;24.85;nan
7105;BME280;3594;42.152;24.714;2022-10-30T13:03:23;-24511.38;;;25.04;nan
7105;BME280;3594;42.152;24.714;2022-10-30T13:05:58;-24505.59;;;24.83;nan
7105;BME280;3594;42.152;24.714;2022-10-30T13:11:20;-24512.63;;;25.09;nan
7105;BME280;3594;42.152;24.714;2022-10-30T13:13:51;-24381.38;;;20.29;nan
7105;BME280;3594;42.152;24.714;2022-10-30T13:16:26;-24508.47;;;24.94;nan
7105;BME280;3594;42.152;24.714;2022-10-30T13:19:04;-24507.38;;;24.90;nan
7105;BME280;3594;42.152;24.714;2022-10-30T13:21:35;-24502.69;;;24.73;nan
7105;BME280;3594;42.152;24.714;2022-10-30T13:24:14;-24507.38;;;24.90;nan
7105;BME280;3594;42.152;24.714;2022-10-30T13:26:55;-24497.88;;;24.55;nan
7105;BME280;3594;42.152;24.714;2022-10-30T13:29:43;-24500.91;;;24.66;nan
7105;BME280;3594;42.152;24.714;2022-10-30T13:35:24;-24489.59;;;24.25;nan
7105;BME280;3594;42.152;24.714;2022-10-30T13:40:33;-24480.34;;;23.91;nan
7105;BME280;3594;42.152;24.714;2022-10-30T13:43:23;-24487.53;;;24.17;nan
7105;BME280;3594;42.152;24.714;2022-10-30T13:45:59;-24490.97;;;24.30;nan
7105;BME280;3594;42.152;24.714;2022-10-30T13:51:54;-24486.16;;;24.12;nan
7105;BME280;3594;42.152;24.714;2022-10-30T13:54:29;-24485.75;;;24.10;nan
7105;BME280;3594;42.152;24.714;2022-10-30T13:56:55;-24479.53;;;23.88;nan
7105;BME280;3594;42.152;24.714;2022-10-30T14:04:37;-24481.59;;;23.95;nan
7105;BME280;3594;42.152;24.714;2022-10-30T14:12:49;-24475.66;;;23.73;nan
7105;BME280;3594;42.152;24.714;2022-10-30T14:15:32;-24464.19;;;23.31;nan
7105;BME280;3594;42.152;24.714;2022-10-30T14:18:25;-24469.72;;;23.52;nan
7105;BME280;3594;42.152;24.714;2022-10-30T14:20:52;-24462.28;;;23.24;nan
7105;BME280;3594;42.152;24.714;2022-10-30T14:23:20;-24468.34;;;23.47;nan
7105;BME280;3594;42.152;24.714;2022-10-30T14:28:26;-24456.47;;;23.03;nan
7105;BME280;3594;42.152;24.714;2022-10-30T14:31:08;-24458.53;;;23.11;nan
7105;BME280;3594;42.152;24.714;2022-10-30T14:33:53;-24449.00;;;22.76;nan
7105;BME280;3594;42.152;24.714;2022-10-30T14:36:23;-24451.91;;;22.86;nan
7105;BME280;3594;42.152;24.714;2022-10-30T14:41:24;-24446.09;;;22.65;nan
7105;BME280;3594;42.152;24.714;2022-10-30T14:44:16;-24444.72;;;22.60;nan
7105;BME280;3594;42.152;24.714;2022-10-30T14:50:00;-24426.59;;;21.94;nan
7105;BME280;3594;42.152;24.714;2022-10-30T14:52:45;-24427.28;;;21.96;nan
7105;BME280;3594;42.152;24.714;2022-10-30T15:06:40;-24417.16;;;21.59;nan
7105;BME280;3594;42.152;24.714;2022-10-30T15:11:51;-24382.22;;;20.32;nan
7105;BME280;3594;42.152;24.714;2022-10-30T15:14:31;-24403.72;;;21.10;nan
7105;BME280;3594;42.152;24.714;2022-10-30T15:16:57;-24395.41;;;20.80;nan
7105;BME280;3594;42.152;24.714;2022-10-30T15:19:23;-24391.22;;;20.65;nan
7105;BME280;3594;42.152;24.714;2022-10-30T15:21:51;-24393.03;;;20.71;nan
7105;BME280;3594;42.152;24.714;2022-10-30T15:24:23;-24385.53;;;20.44;nan
7105;BME280;3594;42.152;24.714;2022-10-30T15:26:51;-24390.53;;;20.62;nan
7105;BME280;3594;42.152;24.714;2022-10-30T15:29:34;-24379.44;;;20.22;nan
7105;BME280;3594;42.152;24.714;2022-10-30T15:32:21;-24377.63;;;20.15;nan
7105;BME280;3594;42.152;24.714;2022-10-30T15:34:58;-24382.63;;;20.34;nan
7105;BME280;3594;42.152;24.714;2022-10-30T15:37:25;-24369.72;;;19.87;nan
7105;BME280;3594;42.152;24.714;2022-10-30T15:40:15;-24375.97;;;20.09;nan